Berthold, North Dakota
Current Conditions -  °F | °C
As of 11:58 PM on Saturday 25 Oct 2014 (Local Time) from KMIB Reporting Station
Clear Clear  
Wind Chill: 32°   Ceiling: Unl
Heat Index: 38°   Visibility: 10mi
Dew Point: 31°   Wind: 8mph
Humidity: 77%   Direction: 150°SSE
Pressure: 29.87"   Gusts: NA
Location:  48.31°N, 101.74°W
Report Text: KMIB 260458Z AUTO 15007KT 10SM CLR 03/00 A2987 RMK AO2 SLP129 T00331003 $
Loading
Personal Weather Stations






























Interactive Weather Map
Tropical Storm Tracking
New forecast layout! Learn more

10-Day Weather Forecast

Advertisements
Track Severe Weather on mobile